createdAt,value
2019-02-23T00:03:55.196Z,99.90
2019-02-23T00:06:36.621Z,99.90
2019-02-23T00:09:18.263Z,99.90
2019-02-23T00:11:59.810Z,99.90
2019-02-23T00:14:40.622Z,99.90
2019-02-23T00:17:22.152Z,99.90
2019-02-23T00:20:02.891Z,99.90
2019-02-23T00:22:44.327Z,99.90
2019-02-23T00:25:25.591Z,99.90
2019-02-23T00:28:06.256Z,99.90
2019-02-23T00:30:46.943Z,99.90
2019-02-23T00:33:28.465Z,99.90
2019-02-23T00:36:09.052Z,99.90
2019-02-23T00:38:49.719Z,99.90
2019-02-23T00:41:31.307Z,99.90
2019-02-23T00:44:11.999Z,99.90
2019-02-23T00:46:53.458Z,99.90
2019-02-23T00:49:36.493Z,99.90
2019-02-23T00:52:16.726Z,99.90
2019-02-23T00:54:58.327Z,99.90
2019-02-23T00:57:38.972Z,99.90
2019-02-23T01:00:19.687Z,99.90
2019-02-23T01:03:00.407Z,99.90
2019-02-23T01:05:41.831Z,99.90
2019-02-23T01:08:22.472Z,99.90
2019-02-23T01:11:03.780Z,99.90
2019-02-23T01:13:45.023Z,99.90
2019-02-23T01:16:26.614Z,99.90
2019-02-23T01:19:07.440Z,99.90
2019-02-23T01:21:48.227Z,99.90
2019-02-23T01:24:29.024Z,99.90
2019-02-23T01:27:09.619Z,99.90
2019-02-23T01:29:50.331Z,99.90
2019-02-23T01:32:31.066Z,99.90
2019-02-23T01:35:12.527Z,99.90
2019-02-23T01:37:53.376Z,99.90
2019-02-23T01:40:34.843Z,99.90
2019-02-23T01:43:16.284Z,99.90
2019-02-23T01:45:56.874Z,99.90
2019-02-23T01:48:38.483Z,99.90
2019-02-23T01:51:19.772Z,99.90
2019-02-23T01:54:00.954Z,99.90
2019-02-23T01:56:41.932Z,99.90
2019-02-23T01:59:22.679Z,99.90
2019-02-23T02:02:04.267Z,99.90
2019-02-23T02:04:45.107Z,99.90
2019-02-23T02:07:25.931Z,99.90
2019-02-23T02:10:07.907Z,99.90
2019-02-23T02:12:49.300Z,99.90
2019-02-23T02:15:30.595Z,99.90
2019-02-23T02:18:11.546Z,99.90
2019-02-23T02:20:52.415Z,99.90
2019-02-23T02:23:33.663Z,99.90
2019-02-23T02:26:15.105Z,99.90
2019-02-23T02:28:56.080Z,99.90
2019-02-23T02:31:37.531Z,99.90
2019-02-23T02:34:19.064Z,99.90
2019-02-23T02:37:00.369Z,99.90
2019-02-23T02:39:41.864Z,99.90
2019-02-23T02:42:23.218Z,99.90
2019-02-23T02:45:03.885Z,99.90
2019-02-23T02:47:44.516Z,99.90
2019-02-23T02:50:25.348Z,99.90
2019-02-23T02:53:06.043Z,99.90
2019-02-23T02:55:47.362Z,99.90
2019-02-23T02:58:28.108Z,99.90
2019-02-23T03:01:09.540Z,99.90
2019-02-23T03:03:50.266Z,99.90
2019-02-23T03:06:31.737Z,99.90
2019-02-23T03:09:13.281Z,99.90
2019-02-23T03:11:54.654Z,99.90
2019-02-23T03:14:35.988Z,99.90
2019-02-23T03:17:16.569Z,99.90
2019-02-23T03:19:57.923Z,99.90
2019-02-23T03:22:38.576Z,99.90
2019-02-23T03:25:19.203Z,99.90
2019-02-23T03:28:00.525Z,99.90
2019-02-23T03:30:42.024Z,99.90
2019-02-23T03:33:22.842Z,99.90
2019-02-23T03:36:03.539Z,99.90
2019-02-23T03:38:45.034Z,99.90
2019-02-23T03:41:25.755Z,99.90
2019-02-23T03:44:07.108Z,99.90
2019-02-23T03:46:49.968Z,99.90
2019-02-23T03:49:31.061Z,99.90
2019-02-23T03:52:11.984Z,99.90
2019-02-23T03:54:53.583Z,99.90
2019-02-23T03:57:34.358Z,99.90
2019-02-23T04:00:15.049Z,99.90
2019-02-23T04:02:55.864Z,99.90
2019-02-23T04:05:37.243Z,99.90
2019-02-23T04:08:18.531Z,99.90
2019-02-23T04:10:59.199Z,99.90
2019-02-23T04:13:40.292Z,99.90
2019-02-23T04:16:23.107Z,99.90
2019-02-23T04:19:04.506Z,99.90
2019-02-23T04:21:45.130Z,99.90
2019-02-23T04:24:26.430Z,99.90
2019-02-23T04:27:07.324Z,99.90
2019-02-23T04:29:48.422Z,99.90
2019-02-23T04:32:29.181Z,99.90
2019-02-23T04:35:09.904Z,99.90
2019-02-23T04:37:50.578Z,99.90
2019-02-23T04:40:31.983Z,99.90
2019-02-23T04:43:13.559Z,99.90
2019-02-23T04:45:54.392Z,99.90
2019-02-23T04:48:35.952Z,99.90
2019-02-23T04:51:17.492Z,99.90
2019-02-23T04:53:58.099Z,99.90
2019-02-23T04:56:39.002Z,99.90
2019-02-23T04:59:20.615Z,99.90
2019-02-23T05:02:01.245Z,99.90
2019-02-23T05:04:41.955Z,99.90
2019-02-23T05:07:22.913Z,99.90
2019-02-23T05:10:03.632Z,99.90
2019-02-23T05:12:44.398Z,99.90
2019-02-23T05:15:25.854Z,99.90
2019-02-23T05:18:07.202Z,99.90
2019-02-23T05:20:47.922Z,99.90
2019-02-23T05:23:28.612Z,99.90
2019-02-23T05:26:09.281Z,99.90
2019-02-23T05:28:50.591Z,99.90
2019-02-23T05:31:31.283Z,99.90
2019-02-23T05:34:12.785Z,99.90
2019-02-23T05:36:54.367Z,99.90
2019-02-23T05:39:35.806Z,99.90
2019-02-23T05:42:17.128Z,99.90
2019-02-23T05:44:58.370Z,99.90
2019-02-23T05:47:39.847Z,99.90
2019-02-23T05:50:20.715Z,99.90
2019-02-23T05:53:02.155Z,99.90
2019-02-23T05:55:43.619Z,99.90
2019-02-23T05:58:25.139Z,99.90
2019-02-23T06:01:05.885Z,99.90
2019-02-23T06:03:47.201Z,99.90
2019-02-23T06:06:27.875Z,99.90
2019-02-23T06:09:09.444Z,99.90
2019-02-23T06:11:50.782Z,99.90
2019-02-23T06:14:31.518Z,99.90
2019-02-23T06:17:13.056Z,99.90
2019-02-23T06:19:53.699Z,99.90
2019-02-23T06:22:34.528Z,99.90
2019-02-23T06:25:16.014Z,99.90
2019-02-23T06:27:57.357Z,99.90
2019-02-23T06:30:37.975Z,99.90
2019-02-23T06:33:18.710Z,99.90
2019-02-23T06:36:00.104Z,99.90
2019-02-23T06:38:40.746Z,99.90
2019-02-23T06:41:21.498Z,99.90
2019-02-23T06:44:02.134Z,99.90
2019-02-23T06:46:43.520Z,99.90
2019-02-23T06:49:24.193Z,99.90
2019-02-23T06:52:04.879Z,99.90
2019-02-23T06:54:46.466Z,99.90
2019-02-23T06:57:27.136Z,99.90
2019-02-23T07:00:07.805Z,99.90
2019-02-23T07:02:48.561Z,99.90
2019-02-23T07:05:29.931Z,99.90
2019-02-23T07:08:10.667Z,99.90
2019-02-23T07:10:52.204Z,99.90
2019-02-23T07:13:33.670Z,99.90
2019-02-23T07:16:14.351Z,99.90
2019-02-23T07:18:55.487Z,99.90
2019-02-23T07:21:36.294Z,99.90
2019-02-23T07:24:17.537Z,99.90
2019-02-23T07:26:58.599Z,99.90
2019-02-23T07:29:39.256Z,99.90
2019-02-23T07:32:20.811Z,99.90
2019-02-23T07:35:02.208Z,99.90
2019-02-23T07:37:42.851Z,99.90
2019-02-23T07:40:24.387Z,99.90
2019-02-23T07:43:05.923Z,99.90
2019-02-23T07:45:45.554Z,99.90
2019-02-23T07:48:33.993Z,99.90
2019-02-23T07:51:22.435Z,99.90
2019-02-23T07:54:10.863Z,99.90
2019-02-23T07:56:59.309Z,99.90
2019-02-23T07:59:40.419Z,99.90
2019-02-23T08:02:21.930Z,99.90
2019-02-23T08:05:02.587Z,99.90
2019-02-23T08:07:44.100Z,99.90
2019-02-23T08:10:24.723Z,99.90
2019-02-23T08:13:06.337Z,99.90
2019-02-23T08:15:46.988Z,99.90
2019-02-23T08:18:27.573Z,99.90
2019-02-23T08:21:08.419Z,99.90
2019-02-23T08:23:49.658Z,99.90
2019-02-23T08:26:31.235Z,99.90
2019-02-23T08:29:12.479Z,99.90
2019-02-23T08:31:53.201Z,99.90
2019-02-23T08:34:33.816Z,99.70
2019-02-23T08:37:15.200Z,96.70
2019-02-23T08:39:55.924Z,98.00
2019-02-23T08:42:37.342Z,96.50
2019-02-23T08:45:18.639Z,93.10
2019-02-23T08:48:00.161Z,95.20
2019-02-23T08:50:40.775Z,95.70
2019-02-23T08:53:22.147Z,94.40
2019-02-23T08:56:02.942Z,93.90
2019-02-23T08:58:44.423Z,92.70
2019-02-23T09:01:25.903Z,91.70
2019-02-23T09:04:07.283Z,95.50
2019-02-23T09:06:48.091Z,93.10
2019-02-23T09:09:28.722Z,93.00
2019-02-23T09:12:09.479Z,90.00
2019-02-23T09:14:50.915Z,86.60
2019-02-23T09:17:32.095Z,85.60
2019-02-23T09:20:12.836Z,85.40
2019-02-23T09:23:00.095Z,74.80
2019-02-23T09:25:35.995Z,81.50
2019-02-23T09:28:17.539Z,80.60
2019-02-23T09:30:58.832Z,78.30
2019-02-23T09:33:39.931Z,80.10
2019-02-23T09:36:21.328Z,81.10
2019-02-23T09:39:02.196Z,78.30
2019-02-23T09:41:42.835Z,76.20
2019-02-23T09:44:23.552Z,79.10
2019-02-23T09:47:04.247Z,75.60
2019-02-23T09:49:44.996Z,79.10
2019-02-23T09:52:25.567Z,84.00
2019-02-23T09:55:07.106Z,79.00
2019-02-23T09:57:48.651Z,78.70
2019-02-23T10:00:30.047Z,77.20
2019-02-23T10:03:11.636Z,71.20
2019-02-23T10:05:53.010Z,73.60
2019-02-23T10:08:33.650Z,76.80
2019-02-23T10:11:15.012Z,77.90
2019-02-23T10:13:55.699Z,76.70
2019-02-23T10:16:36.307Z,74.70
2019-02-23T10:19:17.904Z,75.40
2019-02-23T10:21:58.559Z,75.20
2019-02-23T10:24:39.179Z,74.80
2019-02-23T10:27:20.643Z,77.70
2019-02-23T10:30:01.902Z,77.50
2019-02-23T10:32:42.691Z,79.20
2019-02-23T10:35:23.382Z,81.80
2019-02-23T10:38:03.983Z,80.80
2019-02-23T10:40:44.652Z,81.00
2019-02-23T10:43:25.321Z,78.20
2019-02-23T10:46:06.919Z,78.70
2019-02-23T10:48:47.595Z,78.90
2019-02-23T10:51:28.211Z,70.50
2019-02-23T10:54:08.912Z,76.20
2019-02-23T10:56:50.427Z,75.60
2019-02-23T10:59:30.987Z,83.10
2019-02-23T11:02:11.704Z,78.30
2019-02-23T11:04:52.420Z,73.70
2019-02-23T11:07:33.887Z,76.40
2019-02-23T11:10:14.564Z,72.00
2019-02-23T11:12:55.976Z,73.50
2019-02-23T11:15:36.626Z,75.00
2019-02-23T11:18:18.200Z,74.30
2019-02-23T11:20:58.896Z,72.00
2019-02-23T11:23:44.192Z,70.70
2019-02-23T11:26:22.628Z,69.90
2019-02-23T11:29:03.284Z,72.00
2019-02-23T11:31:44.017Z,70.50
2019-02-23T11:34:25.343Z,71.50
2019-02-23T11:37:06.572Z,75.30
2019-02-23T11:39:47.494Z,71.10
2019-02-23T11:42:28.331Z,72.10
2019-02-23T11:45:08.967Z,74.70
2019-02-23T11:47:49.615Z,71.80
2019-02-23T11:50:30.396Z,68.10
2019-02-23T11:53:11.227Z,68.00
2019-02-23T11:55:51.823Z,67.30
2019-02-23T11:58:32.521Z,72.60
2019-02-23T12:01:13.211Z,73.00
2019-02-23T12:03:54.644Z,71.80
2019-02-23T12:06:35.392Z,67.50
2019-02-23T12:09:16.936Z,64.90
2019-02-23T12:11:57.803Z,65.90
2019-02-23T12:14:39.277Z,67.60
2019-02-23T12:17:19.999Z,70.00
2019-02-23T12:20:00.692Z,70.00
2019-02-23T12:22:41.444Z,74.50
2019-02-23T12:25:22.047Z,81.80
2019-02-23T12:28:02.775Z,86.50
2019-02-23T12:30:43.615Z,85.30
2019-02-23T12:33:24.884Z,89.10
2019-02-23T12:36:05.891Z,87.10
2019-02-23T12:38:46.567Z,90.50
2019-02-23T12:41:27.263Z,91.30
2019-02-23T12:44:08.629Z,86.40
2019-02-23T12:46:49.268Z,85.90
2019-02-23T12:49:29.935Z,86.70
2019-02-23T12:52:10.755Z,84.30
2019-02-23T12:54:52.049Z,79.40
2019-02-23T12:57:33.540Z,83.10
2019-02-23T13:00:14.219Z,85.70
2019-02-23T13:02:55.716Z,85.80
2019-02-23T13:05:36.271Z,85.30
2019-02-23T13:08:17.853Z,86.10
2019-02-23T13:10:59.304Z,82.30
2019-02-23T13:13:39.987Z,79.20
2019-02-23T13:16:21.506Z,71.30
2019-02-23T13:19:02.392Z,74.50
2019-02-23T13:21:43.623Z,73.90
2019-02-23T13:24:28.350Z,71.50
2019-02-23T13:27:06.667Z,72.60
2019-02-23T13:29:47.527Z,75.60
2019-02-23T13:32:28.188Z,79.80
2019-02-23T13:35:09.744Z,79.20
2019-02-23T13:37:51.187Z,78.30
2019-02-23T13:40:32.664Z,79.90
2019-02-23T13:43:14.055Z,77.80
2019-02-23T13:45:55.668Z,75.50
2019-02-23T13:48:37.107Z,79.00
2019-02-23T13:51:18.462Z,82.30
2019-02-23T13:53:59.171Z,78.10
2019-02-23T13:56:40.740Z,73.90
2019-02-23T13:59:22.327Z,72.80
2019-02-23T14:02:03.116Z,71.20
2019-02-23T14:04:44.587Z,74.50
2019-02-23T14:07:27.679Z,77.10
2019-02-23T14:10:07.951Z,80.50
2019-02-23T14:12:49.555Z,79.60
2019-02-23T14:15:30.943Z,79.00
2019-02-23T14:18:12.491Z,78.80
2019-02-23T14:20:54.075Z,86.40
2019-02-23T14:23:35.587Z,88.10
2019-02-23T14:26:17.202Z,90.30
2019-02-23T14:28:58.035Z,90.60
2019-02-23T14:31:39.383Z,91.10
2019-02-23T14:34:20.770Z,91.40
2019-02-23T14:37:02.319Z,85.00
2019-02-23T14:39:43.548Z,78.30
2019-02-23T14:42:24.818Z,81.10
2019-02-23T14:45:06.259Z,84.40
2019-02-23T14:47:46.863Z,89.00
2019-02-23T14:50:28.158Z,90.60
2019-02-23T14:53:08.828Z,92.00
2019-02-23T14:55:50.221Z,91.60
2019-02-23T14:58:31.772Z,92.20
2019-02-23T15:01:12.571Z,92.50
2019-02-23T15:03:53.835Z,93.10
2019-02-23T15:06:35.343Z,90.30
2019-02-23T15:09:17.304Z,92.20
2019-02-23T15:11:58.519Z,92.00
2019-02-23T15:14:39.245Z,92.30
2019-02-23T15:17:20.872Z,91.30
2019-02-23T15:20:02.340Z,93.80
2019-02-23T15:22:43.121Z,95.70
2019-02-23T15:25:23.968Z,99.00
2019-02-23T15:28:04.711Z,92.30
2019-02-23T15:30:45.336Z,96.00
2019-02-23T15:33:28.876Z,96.70
2019-02-23T15:36:09.303Z,96.10
2019-02-23T15:38:50.099Z,99.90
2019-02-23T15:41:30.723Z,99.90
2019-02-23T15:44:12.305Z,99.90
2019-02-23T15:46:53.572Z,99.90
2019-02-23T15:49:36.039Z,98.50
2019-02-23T15:52:16.555Z,96.70
2019-02-23T15:54:57.277Z,99.90
2019-02-23T15:57:38.179Z,99.90
2019-02-23T16:00:19.428Z,99.90
2019-02-23T16:03:00.160Z,98.90
2019-02-23T16:05:41.751Z,99.90
2019-02-23T16:08:23.211Z,99.90
2019-02-23T16:11:04.563Z,99.90
2019-02-23T16:13:46.006Z,99.90
2019-02-23T16:16:27.427Z,99.90
2019-02-23T16:19:08.707Z,99.90
2019-02-23T16:21:52.813Z,99.90
2019-02-23T16:24:32.479Z,99.90
2019-02-23T16:27:13.178Z,99.90
2019-02-23T16:29:53.901Z,99.90
2019-02-23T16:32:33.459Z,99.90
2019-02-23T16:35:22.624Z,99.90
2019-02-23T16:38:12.012Z,99.90
2019-02-23T16:41:00.435Z,99.90
2019-02-23T16:43:41.242Z,99.90
2019-02-23T16:46:22.686Z,99.90
2019-02-23T16:49:03.346Z,99.90
2019-02-23T16:51:44.099Z,99.90
2019-02-23T16:54:24.835Z,99.90
2019-02-23T16:57:05.463Z,99.90
2019-02-23T16:59:47.103Z,99.90
2019-02-23T17:02:28.619Z,99.90
2019-02-23T17:05:09.513Z,99.90
2019-02-23T17:07:50.151Z,99.90
2019-02-23T17:10:31.566Z,99.90
2019-02-23T17:13:13.037Z,99.90
2019-02-23T17:15:54.374Z,99.90
2019-02-23T17:18:36.049Z,99.90
2019-02-23T17:21:17.464Z,99.90
2019-02-23T17:23:58.131Z,99.90
2019-02-23T17:26:38.903Z,99.90
2019-02-23T17:29:19.591Z,99.90
2019-02-23T17:32:00.341Z,99.90
2019-02-23T17:34:41.683Z,99.90
2019-02-23T17:37:22.347Z,99.90
2019-02-23T17:40:03.932Z,99.90
2019-02-23T17:42:44.724Z,99.90
2019-02-23T17:45:25.987Z,99.90
2019-02-23T17:48:07.564Z,99.90
2019-02-23T17:50:48.437Z,99.90
2019-02-23T17:53:29.152Z,99.90
2019-02-23T17:56:12.603Z,99.90
2019-02-23T17:58:53.456Z,99.90
2019-02-23T18:01:35.011Z,99.90
2019-02-23T18:04:16.478Z,99.90
2019-02-23T18:06:57.091Z,99.90
2019-02-23T18:09:38.539Z,99.90
2019-02-23T18:12:19.834Z,99.90
2019-02-23T18:15:01.170Z,99.90
2019-02-23T18:17:41.813Z,99.90
2019-02-23T18:20:22.651Z,99.90
2019-02-23T18:23:03.315Z,99.90
2019-02-23T18:25:44.083Z,99.90
2019-02-23T18:28:25.551Z,99.90
2019-02-23T18:31:06.208Z,99.90
2019-02-23T18:33:46.943Z,99.90
2019-02-23T18:36:27.631Z,99.90
2019-02-23T18:39:08.299Z,99.90
2019-02-23T18:41:49.771Z,99.90
2019-02-23T18:44:31.147Z,99.90
2019-02-23T18:47:12.663Z,99.90
2019-02-23T18:49:53.272Z,99.90
2019-02-23T18:52:34.678Z,99.90
2019-02-23T18:55:15.558Z,99.90
2019-02-23T18:57:56.214Z,99.90
2019-02-23T19:00:36.995Z,99.90
2019-02-23T19:03:18.534Z,99.90
2019-02-23T19:05:59.207Z,99.90
2019-02-23T19:08:40.764Z,99.90
2019-02-23T19:11:21.405Z,99.90
2019-02-23T19:14:02.074Z,99.90
2019-02-23T19:16:43.465Z,99.90
2019-02-23T19:19:24.195Z,99.90
2019-02-23T19:22:05.671Z,99.90
2019-02-23T19:24:46.247Z,99.90
2019-02-23T19:27:27.700Z,99.90
2019-02-23T19:30:08.864Z,99.90
2019-02-23T19:32:49.458Z,99.90
2019-02-23T19:35:30.479Z,99.90
2019-02-23T19:38:11.422Z,99.90
2019-02-23T19:40:52.923Z,99.90
2019-02-23T19:43:34.412Z,99.90
2019-02-23T19:46:16.003Z,99.90
2019-02-23T19:48:57.379Z,99.90
2019-02-23T19:51:38.279Z,99.90
2019-02-23T19:54:19.135Z,99.90
2019-02-23T19:56:59.695Z,99.90
2019-02-23T19:59:40.335Z,99.90
2019-02-23T20:02:20.994Z,99.90
2019-02-23T20:05:02.381Z,99.90
2019-02-23T20:07:43.355Z,99.90
2019-02-23T20:10:22.970Z,99.90
2019-02-23T20:13:11.434Z,99.90
2019-02-23T20:15:59.856Z,99.90
2019-02-23T20:18:48.315Z,99.90
2019-02-23T20:21:36.743Z,99.90
2019-02-23T20:24:25.191Z,99.90
2019-02-23T20:27:13.671Z,99.90
2019-02-23T20:30:02.143Z,99.90
2019-02-23T20:32:50.635Z,99.90
2019-02-23T20:35:39.095Z,99.90
2019-02-23T20:38:27.599Z,99.90
2019-02-23T20:41:16.063Z,99.90
2019-02-23T20:43:57.091Z,99.90
2019-02-23T20:46:38.007Z,99.90
2019-02-23T20:49:20.660Z,99.90
2019-02-23T20:52:01.243Z,99.90
2019-02-23T20:54:43.874Z,99.90
2019-02-23T20:57:25.094Z,99.90
2019-02-23T21:00:06.519Z,99.90
2019-02-23T21:02:47.298Z,99.90
2019-02-23T21:05:27.882Z,99.90
2019-02-23T21:08:08.471Z,99.90
2019-02-23T21:10:49.098Z,99.90
2019-02-23T21:13:29.811Z,99.90
2019-02-23T21:16:11.359Z,99.90
2019-02-23T21:18:51.959Z,99.90
2019-02-23T21:21:32.647Z,99.90
2019-02-23T21:24:13.363Z,99.90
2019-02-23T21:26:54.838Z,99.90
2019-02-23T21:29:36.227Z,99.90
2019-02-23T21:32:17.032Z,99.90
2019-02-23T21:34:58.330Z,99.90
2019-02-23T21:37:39.106Z,99.90
2019-02-23T21:40:19.811Z,99.90
2019-02-23T21:43:00.511Z,99.90
2019-02-23T21:45:41.927Z,99.90
2019-02-23T21:48:23.487Z,99.90
2019-02-23T21:51:04.988Z,99.90
2019-02-23T21:53:46.454Z,99.90
2019-02-23T21:56:27.224Z,99.90
2019-02-23T21:59:08.019Z,99.90
2019-02-23T22:01:48.768Z,99.90
2019-02-23T22:04:29.786Z,99.90
2019-02-23T22:07:11.304Z,99.90
2019-02-23T22:09:51.929Z,99.90
2019-02-23T22:12:32.643Z,99.90
2019-02-23T22:15:13.336Z,99.90
2019-02-23T22:17:54.175Z,99.90
2019-02-23T22:20:34.851Z,99.90
2019-02-23T22:23:15.496Z,99.90
2019-02-23T22:25:56.187Z,99.90
2019-02-23T22:28:37.715Z,99.90
2019-02-23T22:31:19.296Z,99.90
2019-02-23T22:33:59.877Z,99.90
2019-02-23T22:36:40.582Z,99.90
2019-02-23T22:39:22.007Z,99.90
2019-02-23T22:42:03.415Z,99.90
2019-02-23T22:44:44.592Z,99.90
2019-02-23T22:47:25.198Z,99.90
2019-02-23T22:50:05.943Z,99.90
2019-02-23T22:52:46.555Z,99.90
2019-02-23T22:55:27.171Z,99.90
2019-02-23T22:58:08.652Z,99.90
2019-02-23T23:03:57.899Z,99.90
2019-02-23T23:06:39.487Z,99.90
2019-02-23T23:09:21.339Z,99.90
2019-02-23T23:12:02.557Z,99.90
2019-02-23T23:14:44.087Z,99.90
2019-02-23T23:17:24.771Z,99.90
2019-02-23T23:20:06.300Z,99.90
2019-02-23T23:22:47.719Z,99.90
2019-02-23T23:25:28.415Z,99.90
2019-02-23T23:28:09.894Z,99.90
2019-02-23T23:30:50.538Z,99.90
2019-02-23T23:33:31.199Z,99.90
2019-02-23T23:36:12.700Z,99.90
2019-02-23T23:38:53.963Z,99.90
2019-02-23T23:41:33.511Z,99.90
2019-02-23T23:44:14.851Z,99.90
2019-02-23T23:46:56.347Z,99.90
2019-02-23T23:49:36.987Z,99.90
2019-02-23T23:52:18.427Z,99.90
2019-02-23T23:54:59.882Z,99.90
2019-02-23T23:57:40.575Z,99.90
